CBL weather

Aeropuerto "General Tomas de Heres". Ciudad Bolivar
Bolívar, Venezuela

Public forecast

Using degrees Celsius for public forecast. Weather courtesy of forecast.io.

METAR (pilot weather report)

Report is more than 6 hours old.

Retrieved 2018/10/11 09:00 UTC (11 months ago):

SVCB 110900Z /////KT 9999 FEW016 22/22 Q1012

TAF (pilot weather forecast)

Forecast is more than 12 hours old.

Closest forecast is General José Antonio Anzoategui International Airport, 137.7 nm (254.9 km) NNW. Retrieved 2019/09/16 00:03 UTC (1 day ago):

TAF SVBC 162200Z 1700/1800 19005KT 9999 SCT016 TX33/17Z TN23/05Z BECMG 1700/1704 7005KT 9999 BKN020